sensor_id;sensor_type;location;lat;lon;timestamp;temperature;humidity
9975;DHT22;5028;50.974;4.968;2024-02-04T00:01:05;9.90;99.90
9975;DHT22;5028;50.974;4.968;2024-02-04T00:03:34;9.90;99.90
9975;DHT22;5028;50.974;4.968;2024-02-04T00:06:04;9.90;99.90
9975;DHT22;5028;50.974;4.968;2024-02-04T00:08:33;9.90;99.90
9975;DHT22;5028;50.974;4.968;2024-02-04T00:11:02;9.90;99.90
9975;DHT22;5028;50.974;4.968;2024-02-04T00:13:36;9.90;99.90
9975;DHT22;5028;50.974;4.968;2024-02-04T00:16:05;9.90;99.90
9975;DHT22;5028;50.974;4.968;2024-02-04T00:18:35;9.90;99.90
9975;DHT22;5028;50.974;4.968;2024-02-04T00:21:04;9.90;99.90
9975;DHT22;5028;50.974;4.968;2024-02-04T00:23:32;9.90;99.90
9975;DHT22;5028;50.974;4.968;2024-02-04T00:26:01;9.90;99.90
9975;DHT22;5028;50.974;4.968;2024-02-04T00:28:29;9.90;99.90
9975;DHT22;5028;50.974;4.968;2024-02-04T00:30:59;9.90;99.90
9975;DHT22;5028;50.974;4.968;2024-02-04T00:33:28;9.90;99.90
9975;DHT22;5028;50.974;4.968;2024-02-04T00:35:57;9.90;99.90
9975;DHT22;5028;50.974;4.968;2024-02-04T00:38:25;9.90;99.90
9975;DHT22;5028;50.974;4.968;2024-02-04T00:40:54;9.90;99.90
9975;DHT22;5028;50.974;4.968;2024-02-04T00:43:24;9.90;99.90
9975;DHT22;5028;50.974;4.968;2024-02-04T00:45:52;9.90;99.90
9975;DHT22;5028;50.974;4.968;2024-02-04T00:48:25;9.90;99.90
9975;DHT22;5028;50.974;4.968;2024-02-04T00:50:54;9.90;99.90
9975;DHT22;5028;50.974;4.968;2024-02-04T00:53:24;9.90;99.90
9975;DHT22;5028;50.974;4.968;2024-02-04T00:55:55;9.90;99.90
9975;DHT22;5028;50.974;4.968;2024-02-04T00:58:23;9.90;99.90
9975;DHT22;5028;50.974;4.968;2024-02-04T01:00:51;9.90;99.90
9975;DHT22;5028;50.974;4.968;2024-02-04T01:03:20;9.90;99.90
9975;DHT22;5028;50.974;4.968;2024-02-04T01:05:51;9.90;99.90
9975;DHT22;5028;50.974;4.968;2024-02-04T01:08:19;9.90;99.90
9975;DHT22;5028;50.974;4.968;2024-02-04T01:10:48;9.90;99.90
9975;DHT22;5028;50.974;4.968;2024-02-04T01:13:21;9.90;99.90
9975;DHT22;5028;50.974;4.968;2024-02-04T01:15:50;9.90;99.90
9975;DHT22;5028;50.974;4.968;2024-02-04T01:18:18;9.90;99.90
9975;DHT22;5028;50.974;4.968;2024-02-04T01:20:47;9.90;99.90
9975;DHT22;5028;50.974;4.968;2024-02-04T01:23:17;9.90;99.90
9975;DHT22;5028;50.974;4.968;2024-02-04T01:25:47;9.90;99.90
9975;DHT22;5028;50.974;4.968;2024-02-04T01:28:15;9.90;99.90
9975;DHT22;5028;50.974;4.968;2024-02-04T01:30:44;10.00;99.90
9975;DHT22;5028;50.974;4.968;2024-02-04T01:33:13;10.00;99.90
9975;DHT22;5028;50.974;4.968;2024-02-04T01:35:42;9.90;99.90
9975;DHT22;5028;50.974;4.968;2024-02-04T01:38:10;9.90;99.90
9975;DHT22;5028;50.974;4.968;2024-02-04T01:40:40;10.00;99.90
9975;DHT22;5028;50.974;4.968;2024-02-04T01:43:09;10.00;99.90
9975;DHT22;5028;50.974;4.968;2024-02-04T01:45:37;9.90;99.90
9975;DHT22;5028;50.974;4.968;2024-02-04T01:48:06;10.00;99.90
9975;DHT22;5028;50.974;4.968;2024-02-04T01:50:36;9.90;99.90
9975;DHT22;5028;50.974;4.968;2024-02-04T01:53:05;9.90;99.90
9975;DHT22;5028;50.974;4.968;2024-02-04T01:55:34;10.00;99.90
9975;DHT22;5028;50.974;4.968;2024-02-04T01:58:04;9.90;99.90
9975;DHT22;5028;50.974;4.968;2024-02-04T02:00:33;10.00;99.90
9975;DHT22;5028;50.974;4.968;2024-02-04T02:03:04;10.00;99.90
9975;DHT22;5028;50.974;4.968;2024-02-04T02:05:34;10.00;99.90
9975;DHT22;5028;50.974;4.968;2024-02-04T02:08:04;10.00;99.90
9975;DHT22;5028;50.974;4.968;2024-02-04T02:10:33;10.00;99.90
9975;DHT22;5028;50.974;4.968;2024-02-04T02:13:07;10.00;99.90
9975;DHT22;5028;50.974;4.968;2024-02-04T02:15:42;10.00;99.90
9975;DHT22;5028;50.974;4.968;2024-02-04T02:18:27;10.00;99.90
9975;DHT22;5028;50.974;4.968;2024-02-04T02:21:22;10.00;99.90
9975;DHT22;5028;50.974;4.968;2024-02-04T02:24:04;10.00;99.90
9975;DHT22;5028;50.974;4.968;2024-02-04T02:26:37;10.10;99.90
9975;DHT22;5028;50.974;4.968;2024-02-04T02:29:06;10.00;99.90
9975;DHT22;5028;50.974;4.968;2024-02-04T02:31:36;10.00;99.90
9975;DHT22;5028;50.974;4.968;2024-02-04T02:34:15;10.00;99.90
9975;DHT22;5028;50.974;4.968;2024-02-04T02:36:53;10.00;99.90
9975;DHT22;5028;50.974;4.968;2024-02-04T02:39:25;10.10;99.90
9975;DHT22;5028;50.974;4.968;2024-02-04T02:42:01;10.10;99.90
9975;DHT22;5028;50.974;4.968;2024-02-04T02:44:30;10.10;99.90
9975;DHT22;5028;50.974;4.968;2024-02-04T02:46:59;10.10;99.90
9975;DHT22;5028;50.974;4.968;2024-02-04T02:49:29;10.10;99.90
9975;DHT22;5028;50.974;4.968;2024-02-04T02:51:58;10.10;99.90
9975;DHT22;5028;50.974;4.968;2024-02-04T02:54:27;10.10;99.90
9975;DHT22;5028;50.974;4.968;2024-02-04T02:56:55;10.10;99.90
9975;DHT22;5028;50.974;4.968;2024-02-04T02:59:25;10.10;99.90
9975;DHT22;5028;50.974;4.968;2024-02-04T03:01:54;10.10;99.90
9975;DHT22;5028;50.974;4.968;2024-02-04T03:04:22;10.10;99.90
9975;DHT22;5028;50.974;4.968;2024-02-04T03:06:51;10.10;99.90
9975;DHT22;5028;50.974;4.968;2024-02-04T03:09:20;10.10;99.90
9975;DHT22;5028;50.974;4.968;2024-02-04T03:11:48;10.10;99.90
9975;DHT22;5028;50.974;4.968;2024-02-04T03:14:17;10.10;99.90
9975;DHT22;5028;50.974;4.968;2024-02-04T03:16:48;10.10;99.90
9975;DHT22;5028;50.974;4.968;2024-02-04T03:19:20;10.10;99.90
9975;DHT22;5028;50.974;4.968;2024-02-04T03:21:48;10.10;99.90
9975;DHT22;5028;50.974;4.968;2024-02-04T03:24:17;10.10;99.90
9975;DHT22;5028;50.974;4.968;2024-02-04T03:26:45;10.10;99.90
9975;DHT22;5028;50.974;4.968;2024-02-04T03:29:13;10.10;99.90
9975;DHT22;5028;50.974;4.968;2024-02-04T03:31:42;10.10;99.90
9975;DHT22;5028;50.974;4.968;2024-02-04T03:34:12;10.10;99.90
9975;DHT22;5028;50.974;4.968;2024-02-04T03:36:41;10.10;99.90
9975;DHT22;5028;50.974;4.968;2024-02-04T03:39:10;10.20;99.90
9975;DHT22;5028;50.974;4.968;2024-02-04T03:41:39;10.20;99.90
9975;DHT22;5028;50.974;4.968;2024-02-04T03:44:07;10.10;99.90
9975;DHT22;5028;50.974;4.968;2024-02-04T03:46:36;10.20;99.90
9975;DHT22;5028;50.974;4.968;2024-02-04T03:49:07;10.10;99.90
9975;DHT22;5028;50.974;4.968;2024-02-04T03:51:37;10.10;99.90
9975;DHT22;5028;50.974;4.968;2024-02-04T03:54:06;10.10;99.90
9975;DHT22;5028;50.974;4.968;2024-02-04T03:56:35;10.10;99.90
9975;DHT22;5028;50.974;4.968;2024-02-04T03:59:03;10.10;99.90
9975;DHT22;5028;50.974;4.968;2024-02-04T04:01:31;10.10;99.90
9975;DHT22;5028;50.974;4.968;2024-02-04T04:04:01;10.10;99.90
9975;DHT22;5028;50.974;4.968;2024-02-04T04:06:30;10.20;99.90
9975;DHT22;5028;50.974;4.968;2024-02-04T04:08:59;10.20;99.90
9975;DHT22;5028;50.974;4.968;2024-02-04T04:11:28;10.10;99.90
9975;DHT22;5028;50.974;4.968;2024-02-04T04:13:56;10.10;99.90
9975;DHT22;5028;50.974;4.968;2024-02-04T04:16:25;10.20;99.90
9975;DHT22;5028;50.974;4.968;2024-02-04T04:18:55;10.20;99.90
9975;DHT22;5028;50.974;4.968;2024-02-04T04:21:25;10.20;99.90
9975;DHT22;5028;50.974;4.968;2024-02-04T04:23:54;10.20;99.90
9975;DHT22;5028;50.974;4.968;2024-02-04T04:26:24;10.10;99.90
9975;DHT22;5028;50.974;4.968;2024-02-04T04:28:52;10.20;99.90
9975;DHT22;5028;50.974;4.968;2024-02-04T04:31:21;10.20;99.90
9975;DHT22;5028;50.974;4.968;2024-02-04T04:33:49;10.20;99.90
9975;DHT22;5028;50.974;4.968;2024-02-04T04:36:20;10.20;99.90
9975;DHT22;5028;50.974;4.968;2024-02-04T04:38:48;10.20;99.90
9975;DHT22;5028;50.974;4.968;2024-02-04T04:41:19;10.20;99.90
9975;DHT22;5028;50.974;4.968;2024-02-04T04:43:49;10.10;99.90
9975;DHT22;5028;50.974;4.968;2024-02-04T04:46:17;10.20;99.90
9975;DHT22;5028;50.974;4.968;2024-02-04T04:48:46;10.20;99.90
9975;DHT22;5028;50.974;4.968;2024-02-04T04:51:14;10.20;99.90
9975;DHT22;5028;50.974;4.968;2024-02-04T04:53:43;10.10;99.90
9975;DHT22;5028;50.974;4.968;2024-02-04T04:56:12;10.10;99.90
9975;DHT22;5028;50.974;4.968;2024-02-04T04:58:41;10.10;99.90
9975;DHT22;5028;50.974;4.968;2024-02-04T05:01:10;10.10;99.90
9975;DHT22;5028;50.974;4.968;2024-02-04T05:03:40;10.10;99.90
9975;DHT22;5028;50.974;4.968;2024-02-04T05:06:08;10.10;99.90
9975;DHT22;5028;50.974;4.968;2024-02-04T05:08:37;10.10;99.90
9975;DHT22;5028;50.974;4.968;2024-02-04T05:11:05;10.10;99.90
9975;DHT22;5028;50.974;4.968;2024-02-04T05:13:34;10.10;99.90
9975;DHT22;5028;50.974;4.968;2024-02-04T05:16:03;10.10;99.90
9975;DHT22;5028;50.974;4.968;2024-02-04T05:18:34;10.10;99.90
9975;DHT22;5028;50.974;4.968;2024-02-04T05:21:04;10.10;99.90
9975;DHT22;5028;50.974;4.968;2024-02-04T05:23:32;10.10;99.90
9975;DHT22;5028;50.974;4.968;2024-02-04T05:26:03;10.10;99.90
9975;DHT22;5028;50.974;4.968;2024-02-04T05:28:32;10.10;99.90
9975;DHT22;5028;50.974;4.968;2024-02-04T05:31:01;10.10;99.90
9975;DHT22;5028;50.974;4.968;2024-02-04T05:33:30;10.10;99.90
9975;DHT22;5028;50.974;4.968;2024-02-04T05:36:01;10.10;99.90
9975;DHT22;5028;50.974;4.968;2024-02-04T05:38:30;10.10;99.90
9975;DHT22;5028;50.974;4.968;2024-02-04T05:40:59;10.10;99.90
9975;DHT22;5028;50.974;4.968;2024-02-04T05:43:27;10.10;99.90
9975;DHT22;5028;50.974;4.968;2024-02-04T05:45:56;10.10;99.90
9975;DHT22;5028;50.974;4.968;2024-02-04T05:48:25;10.10;99.90
9975;DHT22;5028;50.974;4.968;2024-02-04T05:50:54;10.10;99.90
9975;DHT22;5028;50.974;4.968;2024-02-04T05:53:24;10.00;99.90
9975;DHT22;5028;50.974;4.968;2024-02-04T05:55:52;10.00;99.90
9975;DHT22;5028;50.974;4.968;2024-02-04T05:58:22;10.00;99.90
9975;DHT22;5028;50.974;4.968;2024-02-04T06:00:50;10.00;99.90
9975;DHT22;5028;50.974;4.968;2024-02-04T06:03:19;10.10;99.90
9975;DHT22;5028;50.974;4.968;2024-02-04T06:05:48;10.00;99.90
9975;DHT22;5028;50.974;4.968;2024-02-04T06:08:17;10.00;99.90
9975;DHT22;5028;50.974;4.968;2024-02-04T06:10:47;10.10;99.90
9975;DHT22;5028;50.974;4.968;2024-02-04T06:13:16;10.10;99.90
9975;DHT22;5028;50.974;4.968;2024-02-04T06:15:45;10.00;99.90
9975;DHT22;5028;50.974;4.968;2024-02-04T06:18:14;10.10;99.90
9975;DHT22;5028;50.974;4.968;2024-02-04T06:20:42;10.10;99.90
9975;DHT22;5028;50.974;4.968;2024-02-04T06:23:10;10.00;99.90
9975;DHT22;5028;50.974;4.968;2024-02-04T06:25:39;10.00;99.90
9975;DHT22;5028;50.974;4.968;2024-02-04T06:28:09;10.00;99.90
9975;DHT22;5028;50.974;4.968;2024-02-04T06:30:37;10.00;99.90
9975;DHT22;5028;50.974;4.968;2024-02-04T06:33:08;10.00;99.90
9975;DHT22;5028;50.974;4.968;2024-02-04T06:35:37;10.10;99.90
9975;DHT22;5028;50.974;4.968;2024-02-04T06:38:06;10.00;99.90
9975;DHT22;5028;50.974;4.968;2024-02-04T06:40:34;10.00;99.90
9975;DHT22;5028;50.974;4.968;2024-02-04T06:43:03;10.00;99.90
9975;DHT22;5028;50.974;4.968;2024-02-04T06:45:34;10.00;99.90
9975;DHT22;5028;50.974;4.968;2024-02-04T06:48:03;10.10;99.90
9975;DHT22;5028;50.974;4.968;2024-02-04T06:50:31;10.10;99.90
9975;DHT22;5028;50.974;4.968;2024-02-04T06:53:00;10.10;99.90
9975;DHT22;5028;50.974;4.968;2024-02-04T06:55:29;10.00;99.90
9975;DHT22;5028;50.974;4.968;2024-02-04T06:57:58;10.00;99.90
9975;DHT22;5028;50.974;4.968;2024-02-04T07:00:26;10.00;99.90
9975;DHT22;5028;50.974;4.968;2024-02-04T07:02:56;10.00;99.90
9975;DHT22;5028;50.974;4.968;2024-02-04T07:05:25;10.00;99.90
9975;DHT22;5028;50.974;4.968;2024-02-04T07:07:53;10.00;99.90
9975;DHT22;5028;50.974;4.968;2024-02-04T07:10:22;10.00;99.90
9975;DHT22;5028;50.974;4.968;2024-02-04T07:12:51;10.10;99.90
9975;DHT22;5028;50.974;4.968;2024-02-04T07:15:19;10.10;99.90
9975;DHT22;5028;50.974;4.968;2024-02-04T07:17:47;10.00;99.90
9975;DHT22;5028;50.974;4.968;2024-02-04T07:20:18;10.10;99.90
9975;DHT22;5028;50.974;4.968;2024-02-04T07:22:47;10.00;99.90
9975;DHT22;5028;50.974;4.968;2024-02-04T07:25:15;10.00;99.90
9975;DHT22;5028;50.974;4.968;2024-02-04T07:27:44;10.00;99.90
9975;DHT22;5028;50.974;4.968;2024-02-04T07:30:13;10.00;99.90
9975;DHT22;5028;50.974;4.968;2024-02-04T07:32:42;10.10;99.90
9975;DHT22;5028;50.974;4.968;2024-02-04T07:35:10;10.10;99.90
9975;DHT22;5028;50.974;4.968;2024-02-04T07:37:40;10.00;99.90
9975;DHT22;5028;50.974;4.968;2024-02-04T07:40:10;10.00;99.90
9975;DHT22;5028;50.974;4.968;2024-02-04T07:42:38;10.10;99.90
9975;DHT22;5028;50.974;4.968;2024-02-04T07:45:08;10.00;99.90
9975;DHT22;5028;50.974;4.968;2024-02-04T07:47:37;10.10;99.90
9975;DHT22;5028;50.974;4.968;2024-02-04T07:50:07;10.10;99.90
9975;DHT22;5028;50.974;4.968;2024-02-04T07:52:36;10.10;99.90
9975;DHT22;5028;50.974;4.968;2024-02-04T07:55:09;10.10;99.90
9975;DHT22;5028;50.974;4.968;2024-02-04T07:57:38;10.10;99.90
9975;DHT22;5028;50.974;4.968;2024-02-04T08:00:07;10.10;99.90
9975;DHT22;5028;50.974;4.968;2024-02-04T08:02:38;10.10;99.90
9975;DHT22;5028;50.974;4.968;2024-02-04T08:05:06;10.10;99.90
9975;DHT22;5028;50.974;4.968;2024-02-04T08:07:38;10.10;99.90
9975;DHT22;5028;50.974;4.968;2024-02-04T08:10:09;10.10;99.90
9975;DHT22;5028;50.974;4.968;2024-02-04T08:12:38;10.10;99.90
9975;DHT22;5028;50.974;4.968;2024-02-04T08:15:07;10.10;99.90
9975;DHT22;5028;50.974;4.968;2024-02-04T08:17:36;10.10;99.90
9975;DHT22;5028;50.974;4.968;2024-02-04T08:20:05;10.10;99.90
9975;DHT22;5028;50.974;4.968;2024-02-04T08:22:34;10.10;99.90
9975;DHT22;5028;50.974;4.968;2024-02-04T08:25:03;10.20;99.90
9975;DHT22;5028;50.974;4.968;2024-02-04T08:27:34;10.20;99.90
9975;DHT22;5028;50.974;4.968;2024-02-04T08:30:04;10.20;99.90
9975;DHT22;5028;50.974;4.968;2024-02-04T08:32:33;10.20;99.90
9975;DHT22;5028;50.974;4.968;2024-02-04T08:35:01;10.20;99.90
9975;DHT22;5028;50.974;4.968;2024-02-04T08:37:30;10.20;99.90
9975;DHT22;5028;50.974;4.968;2024-02-04T08:39:59;10.20;99.90
9975;DHT22;5028;50.974;4.968;2024-02-04T08:42:28;10.20;99.90
9975;DHT22;5028;50.974;4.968;2024-02-04T08:44:58;10.20;99.90
9975;DHT22;5028;50.974;4.968;2024-02-04T08:47:26;10.20;99.90
9975;DHT22;5028;50.974;4.968;2024-02-04T08:49:55;10.30;99.90
9975;DHT22;5028;50.974;4.968;2024-02-04T08:52:24;10.30;99.90
9975;DHT22;5028;50.974;4.968;2024-02-04T08:54:53;10.30;99.90
9975;DHT22;5028;50.974;4.968;2024-02-04T08:57:22;10.30;99.90
9975;DHT22;5028;50.974;4.968;2024-02-04T08:59:50;10.30;99.90
9975;DHT22;5028;50.974;4.968;2024-02-04T09:02:21;10.40;99.90
9975;DHT22;5028;50.974;4.968;2024-02-04T09:04:52;10.40;99.90
9975;DHT22;5028;50.974;4.968;2024-02-04T09:07:21;10.40;99.90
9975;DHT22;5028;50.974;4.968;2024-02-04T09:09:51;10.40;99.90
9975;DHT22;5028;50.974;4.968;2024-02-04T09:12:19;10.40;99.90
9975;DHT22;5028;50.974;4.968;2024-02-04T09:14:48;10.40;99.90
9975;DHT22;5028;50.974;4.968;2024-02-04T09:17:17;10.40;99.90
9975;DHT22;5028;50.974;4.968;2024-02-04T09:19:47;10.40;99.90
9975;DHT22;5028;50.974;4.968;2024-02-04T09:22:16;10.40;99.90
9975;DHT22;5028;50.974;4.968;2024-02-04T09:24:45;10.40;99.90
9975;DHT22;5028;50.974;4.968;2024-02-04T09:27:14;10.40;99.90
9975;DHT22;5028;50.974;4.968;2024-02-04T09:29:43;10.50;99.90
9975;DHT22;5028;50.974;4.968;2024-02-04T09:32:11;10.50;99.90
9975;DHT22;5028;50.974;4.968;2024-02-04T09:34:44;10.40;99.90
9975;DHT22;5028;50.974;4.968;2024-02-04T09:37:15;10.50;99.90
9975;DHT22;5028;50.974;4.968;2024-02-04T09:39:44;10.60;99.90
9975;DHT22;5028;50.974;4.968;2024-02-04T09:42:19;10.60;99.90
9975;DHT22;5028;50.974;4.968;2024-02-04T09:44:50;10.50;99.90
9975;DHT22;5028;50.974;4.968;2024-02-04T09:47:19;10.60;99.90
9975;DHT22;5028;50.974;4.968;2024-02-04T09:49:48;10.60;99.90
9975;DHT22;5028;50.974;4.968;2024-02-04T09:52:19;10.60;99.90
9975;DHT22;5028;50.974;4.968;2024-02-04T09:54:54;10.60;99.90
9975;DHT22;5028;50.974;4.968;2024-02-04T09:57:24;10.60;99.90
9975;DHT22;5028;50.974;4.968;2024-02-04T09:59:54;10.60;99.90
9975;DHT22;5028;50.974;4.968;2024-02-04T10:02:23;10.70;99.90
9975;DHT22;5028;50.974;4.968;2024-02-04T10:04:52;10.70;99.90
9975;DHT22;5028;50.974;4.968;2024-02-04T10:07:22;10.70;99.90
9975;DHT22;5028;50.974;4.968;2024-02-04T10:09:51;10.70;99.90
9975;DHT22;5028;50.974;4.968;2024-02-04T10:12:19;10.70;99.90
9975;DHT22;5028;50.974;4.968;2024-02-04T10:14:49;10.70;99.90
9975;DHT22;5028;50.974;4.968;2024-02-04T10:17:17;10.70;99.90
9975;DHT22;5028;50.974;4.968;2024-02-04T10:19:48;10.70;99.90
9975;DHT22;5028;50.974;4.968;2024-02-04T10:22:16;10.70;99.90
9975;DHT22;5028;50.974;4.968;2024-02-04T10:24:46;10.70;99.90
9975;DHT22;5028;50.974;4.968;2024-02-04T10:27:16;10.70;99.90
9975;DHT22;5028;50.974;4.968;2024-02-04T10:29:57;10.70;99.90
9975;DHT22;5028;50.974;4.968;2024-02-04T10:32:26;10.70;99.90
9975;DHT22;5028;50.974;4.968;2024-02-04T10:34:55;10.70;99.90
9975;DHT22;5028;50.974;4.968;2024-02-04T10:37:25;10.80;99.90
9975;DHT22;5028;50.974;4.968;2024-02-04T10:39:58;10.70;99.90
9975;DHT22;5028;50.974;4.968;2024-02-04T10:42:27;10.80;99.90
9975;DHT22;5028;50.974;4.968;2024-02-04T10:44:57;10.80;99.90
9975;DHT22;5028;50.974;4.968;2024-02-04T10:47:30;10.80;99.90
9975;DHT22;5028;50.974;4.968;2024-02-04T10:50:02;10.80;99.90
9975;DHT22;5028;50.974;4.968;2024-02-04T10:52:37;10.80;99.90
9975;DHT22;5028;50.974;4.968;2024-02-04T10:55:10;10.80;99.90
9975;DHT22;5028;50.974;4.968;2024-02-04T10:57:39;10.80;99.90
9975;DHT22;5028;50.974;4.968;2024-02-04T11:00:09;10.80;99.90
9975;DHT22;5028;50.974;4.968;2024-02-04T11:02:40;10.90;99.90
9975;DHT22;5028;50.974;4.968;2024-02-04T11:05:14;11.00;99.90
9975;DHT22;5028;50.974;4.968;2024-02-04T11:07:44;11.00;99.90
9975;DHT22;5028;50.974;4.968;2024-02-04T11:10:14;11.00;99.90
9975;DHT22;5028;50.974;4.968;2024-02-04T11:12:44;11.00;99.90
9975;DHT22;5028;50.974;4.968;2024-02-04T11:15:15;11.00;99.90
9975;DHT22;5028;50.974;4.968;2024-02-04T11:17:57;11.00;99.90
9975;DHT22;5028;50.974;4.968;2024-02-04T11:20:42;11.10;99.90
9975;DHT22;5028;50.974;4.968;2024-02-04T11:23:35;11.10;99.90
9975;DHT22;5028;50.974;4.968;2024-02-04T11:26:07;11.10;99.90
9975;DHT22;5028;50.974;4.968;2024-02-04T11:28:37;11.10;99.90
9975;DHT22;5028;50.974;4.968;2024-02-04T11:31:13;11.10;99.90
9975;DHT22;5028;50.974;4.968;2024-02-04T11:33:43;11.10;99.90
9975;DHT22;5028;50.974;4.968;2024-02-04T11:36:13;11.10;99.90
9975;DHT22;5028;50.974;4.968;2024-02-04T11:38:48;11.20;99.90
9975;DHT22;5028;50.974;4.968;2024-02-04T11:41:24;11.20;99.90
9975;DHT22;5028;50.974;4.968;2024-02-04T11:43:56;11.20;99.90
9975;DHT22;5028;50.974;4.968;2024-02-04T11:46:29;11.20;99.90
9975;DHT22;5028;50.974;4.968;2024-02-04T11:49:00;11.10;99.90
9975;DHT22;5028;50.974;4.968;2024-02-04T11:51:30;11.20;99.90
9975;DHT22;5028;50.974;4.968;2024-02-04T11:53:58;11.10;99.90
9975;DHT22;5028;50.974;4.968;2024-02-04T11:56:33;11.10;99.90
9975;DHT22;5028;50.974;4.968;2024-02-04T11:59:05;11.10;99.90
9975;DHT22;5028;50.974;4.968;2024-02-04T12:01:37;11.10;99.90
9975;DHT22;5028;50.974;4.968;2024-02-04T12:04:10;11.10;99.90
9975;DHT22;5028;50.974;4.968;2024-02-04T12:06:40;11.10;99.90
9975;DHT22;5028;50.974;4.968;2024-02-04T12:09:09;11.10;99.90
9975;DHT22;5028;50.974;4.968;2024-02-04T12:11:40;11.10;99.90
9975;DHT22;5028;50.974;4.968;2024-02-04T12:14:08;11.10;99.90
9975;DHT22;5028;50.974;4.968;2024-02-04T12:16:38;11.10;99.90
9975;DHT22;5028;50.974;4.968;2024-02-04T12:19:07;11.10;99.90
9975;DHT22;5028;50.974;4.968;2024-02-04T12:21:37;11.10;99.90
9975;DHT22;5028;50.974;4.968;2024-02-04T12:24:06;11.20;99.90
9975;DHT22;5028;50.974;4.968;2024-02-04T12:26:35;11.20;99.90
9975;DHT22;5028;50.974;4.968;2024-02-04T12:29:06;11.20;99.90
9975;DHT22;5028;50.974;4.968;2024-02-04T12:31:34;11.20;99.90
9975;DHT22;5028;50.974;4.968;2024-02-04T12:34:08;11.30;99.90
9975;DHT22;5028;50.974;4.968;2024-02-04T12:36:39;11.30;99.90
9975;DHT22;5028;50.974;4.968;2024-02-04T12:39:10;11.20;99.90
9975;DHT22;5028;50.974;4.968;2024-02-04T12:41:39;11.30;99.90
9975;DHT22;5028;50.974;4.968;2024-02-04T12:44:09;11.30;99.90
9975;DHT22;5028;50.974;4.968;2024-02-04T12:46:37;11.20;99.90
9975;DHT22;5028;50.974;4.968;2024-02-04T12:49:06;11.20;99.90
9975;DHT22;5028;50.974;4.968;2024-02-04T12:51:35;11.20;99.90
9975;DHT22;5028;50.974;4.968;2024-02-04T12:54:05;11.20;99.90
9975;DHT22;5028;50.974;4.968;2024-02-04T12:56:45;11.20;99.90
9975;DHT22;5028;50.974;4.968;2024-02-04T12:59:29;11.10;99.90
9975;DHT22;5028;50.974;4.968;2024-02-04T13:01:59;11.10;99.90
9975;DHT22;5028;50.974;4.968;2024-02-04T13:04:34;11.10;99.90
9975;DHT22;5028;50.974;4.968;2024-02-04T13:07:07;11.10;99.90
9975;DHT22;5028;50.974;4.968;2024-02-04T13:09:37;11.00;99.90
9975;DHT22;5028;50.974;4.968;2024-02-04T13:12:07;11.00;99.90
9975;DHT22;5028;50.974;4.968;2024-02-04T13:14:37;11.00;99.90
9975;DHT22;5028;50.974;4.968;2024-02-04T13:17:06;11.10;99.90
9975;DHT22;5028;50.974;4.968;2024-02-04T13:19:35;11.10;99.90
9975;DHT22;5028;50.974;4.968;2024-02-04T13:22:07;11.10;99.90
9975;DHT22;5028;50.974;4.968;2024-02-04T13:24:37;11.10;99.90
9975;DHT22;5028;50.974;4.968;2024-02-04T13:27:07;11.10;99.90
9975;DHT22;5028;50.974;4.968;2024-02-04T13:29:37;11.10;99.90
9975;DHT22;5028;50.974;4.968;2024-02-04T13:32:06;11.10;99.90
9975;DHT22;5028;50.974;4.968;2024-02-04T13:34:35;11.20;99.90
9975;DHT22;5028;50.974;4.968;2024-02-04T13:37:04;11.20;99.90
9975;DHT22;5028;50.974;4.968;2024-02-04T13:39:33;11.20;99.90
9975;DHT22;5028;50.974;4.968;2024-02-04T13:42:02;11.20;99.90
9975;DHT22;5028;50.974;4.968;2024-02-04T13:44:31;11.20;99.90
9975;DHT22;5028;50.974;4.968;2024-02-04T13:47:01;11.20;99.90
9975;DHT22;5028;50.974;4.968;2024-02-04T13:49:30;11.10;99.90
9975;DHT22;5028;50.974;4.968;2024-02-04T13:51:58;11.10;99.90
9975;DHT22;5028;50.974;4.968;2024-02-04T13:54:27;11.10;99.90
9975;DHT22;5028;50.974;4.968;2024-02-04T13:56:55;11.10;99.90
9975;DHT22;5028;50.974;4.968;2024-02-04T13:59:24;11.10;99.90
9975;DHT22;5028;50.974;4.968;2024-02-04T14:01:53;11.10;99.90
9975;DHT22;5028;50.974;4.968;2024-02-04T14:04:29;11.10;99.90
9975;DHT22;5028;50.974;4.968;2024-02-04T14:06:58;11.10;99.90
9975;DHT22;5028;50.974;4.968;2024-02-04T14:09:27;11.10;99.90
9975;DHT22;5028;50.974;4.968;2024-02-04T14:11:56;11.10;99.90
9975;DHT22;5028;50.974;4.968;2024-02-04T14:14:24;11.10;99.90
9975;DHT22;5028;50.974;4.968;2024-02-04T14:16:53;11.10;99.90
9975;DHT22;5028;50.974;4.968;2024-02-04T14:19:22;11.10;99.90
9975;DHT22;5028;50.974;4.968;2024-02-04T14:21:52;11.10;99.90
9975;DHT22;5028;50.974;4.968;2024-02-04T14:24:21;11.10;99.90
9975;DHT22;5028;50.974;4.968;2024-02-04T14:26:56;11.20;99.90
9975;DHT22;5028;50.974;4.968;2024-02-04T14:29:24;11.20;99.90
9975;DHT22;5028;50.974;4.968;2024-02-04T14:31:55;11.20;99.90
9975;DHT22;5028;50.974;4.968;2024-02-04T14:34:25;11.20;99.90
9975;DHT22;5028;50.974;4.968;2024-02-04T14:36:56;11.20;99.90
9975;DHT22;5028;50.974;4.968;2024-02-04T14:39:26;11.20;99.90
9975;DHT22;5028;50.974;4.968;2024-02-04T14:41:55;11.20;99.90
9975;DHT22;5028;50.974;4.968;2024-02-04T14:44:23;11.20;99.90
9975;DHT22;5028;50.974;4.968;2024-02-04T14:46:52;11.20;99.90
9975;DHT22;5028;50.974;4.968;2024-02-04T14:49:21;11.20;99.90
9975;DHT22;5028;50.974;4.968;2024-02-04T14:51:50;11.20;99.90
9975;DHT22;5028;50.974;4.968;2024-02-04T14:54:21;11.20;99.90
9975;DHT22;5028;50.974;4.968;2024-02-04T14:56:49;11.10;99.90
9975;DHT22;5028;50.974;4.968;2024-02-04T14:59:18;11.20;99.90
9975;DHT22;5028;50.974;4.968;2024-02-04T15:01:49;11.20;99.90
9975;DHT22;5028;50.974;4.968;2024-02-04T15:04:18;11.10;99.90
9975;DHT22;5028;50.974;4.968;2024-02-04T15:06:47;11.10;99.90
9975;DHT22;5028;50.974;4.968;2024-02-04T15:09:16;11.10;99.90
9975;DHT22;5028;50.974;4.968;2024-02-04T15:11:47;11.20;99.90
9975;DHT22;5028;50.974;4.968;2024-02-04T15:14:16;11.20;99.90
9975;DHT22;5028;50.974;4.968;2024-02-04T15:16:45;11.20;99.90
9975;DHT22;5028;50.974;4.968;2024-02-04T15:19:15;11.20;99.90
9975;DHT22;5028;50.974;4.968;2024-02-04T15:21:45;11.10;99.90
9975;DHT22;5028;50.974;4.968;2024-02-04T15:24:16;11.10;99.90
9975;DHT22;5028;50.974;4.968;2024-02-04T15:26:48;11.10;99.90
9975;DHT22;5028;50.974;4.968;2024-02-04T15:29:18;11.00;99.90
9975;DHT22;5028;50.974;4.968;2024-02-04T15:31:49;11.00;99.90
9975;DHT22;5028;50.974;4.968;2024-02-04T15:34:18;11.00;99.90
9975;DHT22;5028;50.974;4.968;2024-02-04T15:36:47;11.00;99.90
9975;DHT22;5028;50.974;4.968;2024-02-04T15:39:15;11.00;99.90
9975;DHT22;5028;50.974;4.968;2024-02-04T15:41:46;10.90;99.90
9975;DHT22;5028;50.974;4.968;2024-02-04T15:44:15;10.90;99.90
9975;DHT22;5028;50.974;4.968;2024-02-04T15:46:45;10.90;99.90
9975;DHT22;5028;50.974;4.968;2024-02-04T15:49:18;10.90;99.90
9975;DHT22;5028;50.974;4.968;2024-02-04T15:51:48;10.90;99.90
9975;DHT22;5028;50.974;4.968;2024-02-04T15:54:17;10.90;99.90
9975;DHT22;5028;50.974;4.968;2024-02-04T15:56:54;10.90;99.90
9975;DHT22;5028;50.974;4.968;2024-02-04T15:59:27;10.80;99.90
9975;DHT22;5028;50.974;4.968;2024-02-04T16:02:00;10.80;99.90
9975;DHT22;5028;50.974;4.968;2024-02-04T16:04:30;10.80;99.90
9975;DHT22;5028;50.974;4.968;2024-02-04T16:06:59;10.80;99.90
9975;DHT22;5028;50.974;4.968;2024-02-04T16:09:28;10.80;99.90
9975;DHT22;5028;50.974;4.968;2024-02-04T16:12:04;10.80;99.90
9975;DHT22;5028;50.974;4.968;2024-02-04T16:14:35;10.90;99.90
9975;DHT22;5028;50.974;4.968;2024-02-04T16:17:05;10.90;99.90
9975;DHT22;5028;50.974;4.968;2024-02-04T16:19:35;10.80;99.90